createdAt,value
2018-08-12T00:01:22.553Z,61.90
2018-08-12T00:04:25.632Z,61.80
2018-08-12T00:07:29.833Z,61.70
2018-08-12T00:10:32.919Z,62.20
2018-08-12T00:13:35.997Z,62.10
2018-08-12T00:16:39.054Z,62.10
2018-08-12T00:19:42.137Z,62.40
2018-08-12T00:22:45.692Z,62.10
2018-08-12T00:25:48.750Z,62.70
2018-08-12T00:28:51.821Z,62.50
2018-08-12T00:31:54.905Z,62.70
2018-08-12T00:34:57.960Z,62.90
2018-08-12T00:38:01.065Z,63.10
2018-08-12T00:41:04.277Z,62.90
2018-08-12T00:44:07.528Z,63.00
2018-08-12T00:47:10.605Z,63.20
2018-08-12T00:50:14.537Z,63.40
2018-08-12T00:53:18.537Z,63.50
2018-08-12T00:56:21.593Z,63.50
2018-08-12T00:59:24.670Z,63.70
2018-08-12T01:02:27.780Z,64.00
2018-08-12T01:05:30.854Z,64.40
2018-08-12T01:08:33.917Z,64.60
2018-08-12T01:11:37.002Z,64.80
2018-08-12T01:14:40.090Z,64.90
2018-08-12T01:17:43.537Z,64.70
2018-08-12T01:20:46.735Z,65.20
2018-08-12T01:23:49.986Z,64.90
2018-08-12T01:26:53.292Z,64.90
2018-08-12T01:29:56.610Z,64.70
2018-08-12T01:32:59.866Z,64.80
2018-08-12T01:36:06.122Z,64.70
2018-08-12T01:39:10.215Z,64.70
2018-08-12T01:42:13.380Z,64.70
2018-08-12T01:45:18.194Z,64.40
2018-08-12T01:48:21.395Z,64.30
2018-08-12T01:51:24.586Z,64.20
2018-08-12T01:54:27.933Z,64.40
2018-08-12T01:57:31.235Z,64.50
2018-08-12T02:00:34.575Z,64.50
2018-08-12T02:03:37.846Z,65.40
2018-08-12T02:06:41.053Z,66.20
2018-08-12T02:09:44.264Z,65.60
2018-08-12T02:12:47.490Z,65.70
2018-08-12T02:15:50.758Z,66.60
2018-08-12T02:18:54.093Z,66.00
2018-08-12T02:21:57.542Z,66.20
2018-08-12T02:25:00.771Z,66.60
2018-08-12T02:28:04.079Z,66.90
2018-08-12T02:31:07.376Z,66.90
2018-08-12T02:34:10.719Z,67.50
2018-08-12T02:37:14.065Z,67.20
2018-08-12T02:40:17.283Z,67.40
2018-08-12T02:43:20.468Z,67.70
2018-08-12T02:46:23.714Z,68.00
2018-08-12T02:49:26.845Z,68.50
2018-08-12T02:52:30.034Z,68.30
2018-08-12T02:55:33.306Z,68.50
2018-08-12T02:58:36.587Z,69.70
2018-08-12T03:01:39.741Z,68.90
2018-08-12T03:04:42.959Z,69.20
2018-08-12T03:07:46.238Z,69.50
2018-08-12T03:10:49.472Z,69.60
2018-08-12T03:13:52.626Z,69.70
2018-08-12T03:16:55.869Z,69.70
2018-08-12T03:19:59.105Z,69.60
2018-08-12T03:23:02.370Z,70.30
2018-08-12T03:26:05.586Z,69.60
2018-08-12T03:29:08.854Z,70.00
2018-08-12T03:32:12.072Z,70.00
2018-08-12T03:35:15.326Z,69.80
2018-08-12T03:38:18.649Z,69.30
2018-08-12T03:41:21.951Z,69.40
2018-08-12T03:44:25.199Z,68.80
2018-08-12T03:47:28.366Z,68.50
2018-08-12T03:50:31.591Z,68.80
2018-08-12T03:53:35.209Z,68.50
2018-08-12T03:56:38.490Z,68.30
2018-08-12T03:59:41.790Z,68.80
2018-08-12T04:02:46.271Z,69.50
2018-08-12T04:05:49.501Z,69.60
2018-08-12T04:08:52.721Z,69.40
2018-08-12T04:11:55.927Z,69.40
2018-08-12T04:14:59.122Z,69.50
2018-08-12T04:18:02.348Z,68.80
2018-08-12T04:21:05.622Z,68.90
2018-08-12T04:24:08.914Z,68.60
2018-08-12T04:27:12.201Z,68.30
2018-08-12T04:30:15.470Z,67.50
2018-08-12T04:33:18.707Z,67.70
2018-08-12T04:36:21.950Z,67.50
2018-08-12T04:39:25.232Z,67.00
2018-08-12T04:42:28.389Z,66.60
2018-08-12T04:45:31.675Z,65.50
2018-08-12T04:48:34.986Z,65.70
2018-08-12T04:51:38.384Z,65.70
2018-08-12T04:54:41.646Z,66.00
2018-08-12T04:57:44.937Z,65.10
2018-08-12T05:00:48.321Z,64.70
2018-08-12T05:03:51.514Z,64.80
2018-08-12T05:06:54.889Z,63.70
2018-08-12T05:09:58.071Z,64.70
2018-08-12T05:13:01.370Z,62.20
2018-08-12T05:16:04.664Z,62.20
2018-08-12T05:19:07.892Z,62.10
2018-08-12T05:22:11.174Z,62.60
2018-08-12T05:25:14.422Z,60.00
2018-08-12T05:28:17.669Z,59.80
2018-08-12T05:31:21.043Z,59.60
2018-08-12T05:34:24.233Z,59.00
2018-08-12T05:37:27.422Z,58.70
2018-08-12T05:40:30.650Z,57.70
2018-08-12T05:43:33.966Z,53.10
2018-08-12T05:46:37.202Z,48.90
2018-08-12T05:49:40.405Z,47.90
2018-08-12T05:52:43.536Z,47.10
2018-08-12T05:55:46.601Z,46.70
2018-08-12T05:58:49.698Z,45.80
2018-08-12T06:01:52.793Z,42.30
2018-08-12T06:04:55.889Z,43.30
2018-08-12T06:07:59.661Z,40.90
2018-08-12T06:11:02.834Z,40.30
2018-08-12T06:14:06.602Z,39.20
2018-08-12T06:17:09.677Z,37.50
2018-08-12T06:20:15.988Z,35.30
2018-08-12T06:23:30.529Z,33.30
2018-08-12T06:26:33.605Z,30.90
2018-08-12T06:29:36.678Z,29.20
2018-08-12T06:32:39.853Z,28.30
2018-08-12T06:35:42.938Z,27.60
2018-08-12T06:38:46.305Z,27.20
2018-08-12T06:41:49.393Z,27.40
2018-08-12T06:44:52.497Z,28.20
2018-08-12T06:47:55.544Z,28.10
2018-08-12T06:50:58.696Z,27.10
2018-08-12T06:54:02.018Z,25.60
2018-08-12T06:57:05.394Z,25.00
2018-08-12T07:00:11.606Z,24.70
2018-08-12T07:03:14.834Z,24.40
2018-08-12T07:06:18.088Z,23.80
2018-08-12T07:09:21.479Z,24.20
2018-08-12T07:12:24.775Z,23.60
2018-08-12T07:15:28.076Z,23.40
2018-08-12T07:18:31.740Z,23.50
2018-08-12T07:21:35.179Z,23.60
2018-08-12T07:24:38.461Z,24.10
2018-08-12T07:27:42.366Z,24.80
2018-08-12T07:30:45.585Z,25.80
2018-08-12T07:33:48.874Z,26.60
2018-08-12T07:36:52.082Z,26.40
2018-08-12T07:39:55.358Z,26.70
2018-08-12T07:42:58.554Z,27.00
2018-08-12T07:46:02.045Z,27.60
2018-08-12T07:49:05.244Z,28.20
2018-08-12T07:52:08.502Z,28.10
2018-08-12T07:55:12.542Z,28.30
2018-08-12T07:58:15.710Z,27.60
2018-08-12T08:01:18.915Z,27.20
2018-08-12T08:04:22.103Z,27.00
2018-08-12T08:07:25.266Z,27.00
2018-08-12T08:10:28.474Z,26.40
2018-08-12T08:13:31.669Z,26.70
2018-08-12T08:16:34.858Z,27.20
2018-08-12T08:19:38.437Z,25.70
2018-08-12T08:22:42.673Z,26.20
2018-08-12T08:25:45.879Z,27.20
2018-08-12T08:28:49.074Z,26.70
2018-08-12T08:31:52.567Z,26.40
2018-08-12T08:34:55.638Z,25.90
2018-08-12T08:37:58.991Z,25.70
2018-08-12T08:41:02.217Z,25.60
2018-08-12T08:44:05.719Z,25.30
2018-08-12T08:47:08.850Z,25.90
2018-08-12T08:50:12.193Z,25.90
2018-08-12T08:53:15.622Z,25.70
2018-08-12T08:56:18.902Z,26.50
2018-08-12T08:59:22.247Z,26.40
2018-08-12T09:02:25.594Z,25.70
2018-08-12T09:05:28.755Z,26.30
2018-08-12T09:08:32.239Z,25.70
2018-08-12T09:11:35.258Z,26.40
2018-08-12T09:14:38.401Z,26.10
2018-08-12T09:17:42.453Z,26.80
2018-08-12T09:20:45.643Z,26.90
2018-08-12T09:23:48.894Z,27.10
2018-08-12T09:26:52.150Z,28.00
2018-08-12T09:29:55.354Z,28.90
2018-08-12T09:32:58.530Z,28.70
2018-08-12T09:36:01.919Z,30.30
2018-08-12T09:39:08.182Z,30.10
2018-08-12T09:42:11.620Z,29.50
2018-08-12T09:45:16.951Z,30.90
2018-08-12T09:48:20.270Z,30.80
2018-08-12T09:51:23.593Z,30.60
2018-08-12T09:54:26.812Z,30.90
2018-08-12T09:57:30.044Z,31.10
2018-08-12T10:00:38.612Z,32.00
2018-08-12T10:03:41.852Z,31.70
2018-08-12T10:06:45.066Z,31.20
2018-08-12T10:09:48.302Z,32.40
2018-08-12T10:12:51.557Z,32.40
2018-08-12T10:15:54.828Z,31.80
2018-08-12T10:18:58.113Z,31.30
2018-08-12T10:22:01.321Z,31.20
2018-08-12T10:25:05.171Z,31.40
2018-08-12T10:28:08.314Z,31.50
2018-08-12T10:31:11.528Z,31.40
2018-08-12T10:34:14.755Z,32.10
2018-08-12T10:37:17.929Z,32.30
2018-08-12T10:40:21.583Z,31.60
2018-08-12T10:43:24.843Z,31.30
2018-08-12T10:46:28.050Z,31.80
2018-08-12T10:49:31.297Z,32.20
2018-08-12T10:52:34.534Z,32.70
2018-08-12T10:55:37.821Z,32.70
2018-08-12T10:58:41.027Z,32.30
2018-08-12T11:01:44.267Z,32.60
2018-08-12T11:04:47.478Z,31.60
2018-08-12T11:07:56.046Z,32.10
2018-08-12T11:10:59.322Z,32.30
2018-08-12T11:14:02.866Z,31.90
2018-08-12T11:17:06.170Z,31.10
2018-08-12T11:20:09.922Z,31.70
2018-08-12T11:23:13.147Z,31.40
2018-08-12T11:26:27.515Z,32.50
2018-08-12T11:29:30.775Z,33.10
2018-08-12T11:32:34.061Z,31.90
2018-08-12T11:35:37.293Z,33.30
2018-08-12T11:38:40.590Z,33.40
2018-08-12T11:41:43.854Z,32.60
2018-08-12T11:44:47.149Z,32.50
2018-08-12T11:47:50.310Z,32.70
2018-08-12T11:50:53.553Z,32.60
2018-08-12T11:53:56.767Z,32.90
2018-08-12T11:57:04.261Z,32.50
2018-08-12T12:00:11.259Z,31.90
2018-08-12T12:03:14.539Z,32.00
2018-08-12T12:06:17.763Z,32.20
2018-08-12T12:09:20.970Z,33.10
2018-08-12T12:12:24.266Z,32.10
2018-08-12T12:15:27.459Z,32.50
2018-08-12T12:18:31.202Z,31.00
2018-08-12T12:21:34.454Z,30.40
2018-08-12T12:24:37.654Z,30.90
2018-08-12T12:27:40.846Z,30.90
2018-08-12T12:30:44.103Z,31.70
2018-08-12T12:33:47.315Z,31.20
2018-08-12T12:36:50.551Z,31.60
2018-08-12T12:39:53.829Z,31.20
2018-08-12T12:42:57.069Z,31.30
2018-08-12T12:46:00.372Z,30.80
2018-08-12T12:49:03.638Z,30.60
2018-08-12T12:52:06.957Z,31.60
2018-08-12T12:55:10.118Z,30.60
2018-08-12T12:58:13.457Z,30.60
2018-08-12T13:01:16.717Z,30.50
2018-08-12T13:04:19.926Z,29.70
2018-08-12T13:07:23.271Z,30.40
2018-08-12T13:10:26.566Z,29.80
2018-08-12T13:13:29.818Z,29.80
2018-08-12T13:16:33.122Z,29.30
2018-08-12T13:19:36.422Z,29.90
2018-08-12T13:22:39.658Z,29.60
2018-08-12T13:25:42.882Z,29.10
2018-08-12T13:28:46.126Z,29.50
2018-08-12T13:31:49.346Z,29.30
2018-08-12T13:34:52.586Z,29.70
2018-08-12T13:37:55.812Z,29.00
2018-08-12T13:40:59.110Z,29.70
2018-08-12T13:44:02.303Z,29.80
2018-08-12T13:47:05.624Z,28.90
2018-08-12T13:50:15.933Z,29.00
2018-08-12T13:53:19.258Z,28.80
2018-08-12T13:56:22.538Z,28.90
2018-08-12T13:59:25.862Z,29.20
2018-08-12T14:02:29.009Z,28.50
2018-08-12T14:05:32.074Z,28.00
2018-08-12T14:08:35.174Z,28.10
2018-08-12T14:11:38.469Z,27.60
2018-08-12T14:14:41.533Z,28.20
2018-08-12T14:17:45.678Z,27.90
2018-08-12T14:20:48.774Z,27.90
2018-08-12T14:23:51.820Z,28.40
2018-08-12T14:26:54.913Z,28.40
2018-08-12T14:29:57.960Z,27.90
2018-08-12T14:33:01.070Z,28.00
2018-08-12T14:36:04.136Z,28.40
2018-08-12T14:39:08.446Z,28.00
2018-08-12T14:42:11.515Z,27.10
2018-08-12T14:45:15.232Z,26.80
2018-08-12T14:48:18.304Z,26.50
2018-08-12T14:51:21.454Z,26.20
2018-08-12T14:54:24.440Z,26.60
2018-08-12T14:57:27.484Z,26.60
2018-08-12T15:00:30.566Z,25.30
2018-08-12T15:03:33.642Z,25.00
2018-08-12T15:06:36.718Z,24.80
2018-08-12T15:09:39.792Z,25.30
2018-08-12T15:12:43.585Z,25.20
2018-08-12T15:15:46.665Z,25.30
2018-08-12T15:18:49.743Z,25.50
2018-08-12T15:21:52.809Z,25.80
2018-08-12T15:24:55.942Z,25.90
2018-08-12T15:27:59.021Z,25.30
2018-08-12T15:31:02.084Z,25.50
2018-08-12T15:34:05.194Z,26.10
2018-08-12T15:37:08.266Z,26.50
2018-08-12T15:40:12.913Z,26.40
2018-08-12T15:43:15.988Z,25.90
2018-08-12T15:46:19.083Z,26.60
2018-08-12T15:49:22.137Z,26.50
2018-08-12T15:52:25.298Z,27.10
2018-08-12T15:55:28.504Z,26.90
2018-08-12T15:58:31.734Z,26.80
2018-08-12T16:01:35.120Z,26.80
2018-08-12T16:04:38.462Z,26.60
2018-08-12T16:07:42.006Z,27.70
2018-08-12T16:10:45.268Z,27.10
2018-08-12T16:13:48.493Z,26.60
2018-08-12T16:16:51.723Z,26.60
2018-08-12T16:19:54.994Z,26.10
2018-08-12T16:22:58.170Z,26.00
2018-08-12T16:26:01.464Z,26.30
2018-08-12T16:29:04.776Z,25.80
2018-08-12T16:32:08.908Z,26.10
2018-08-12T16:35:13.525Z,26.30
2018-08-12T16:38:16.662Z,27.00
2018-08-12T16:41:19.885Z,27.00
2018-08-12T16:44:23.057Z,26.40
2018-08-12T16:47:26.333Z,26.60
2018-08-12T16:50:29.637Z,26.60
2018-08-12T16:53:32.938Z,26.80
2018-08-12T16:56:36.174Z,26.50
2018-08-12T16:59:39.830Z,26.90
2018-08-12T17:02:43.548Z,27.30
2018-08-12T17:05:46.842Z,27.30
2018-08-12T17:08:50.086Z,27.20
2018-08-12T17:11:53.293Z,27.50
2018-08-12T17:14:56.534Z,27.40
2018-08-12T17:17:59.777Z,27.90
2018-08-12T17:21:02.971Z,27.90
2018-08-12T17:24:06.199Z,27.90
2018-08-12T17:27:09.418Z,27.90
2018-08-12T17:30:14.095Z,27.80
2018-08-12T17:33:17.341Z,28.00
2018-08-12T17:36:20.583Z,28.70
2018-08-12T17:39:23.810Z,28.20
2018-08-12T17:42:27.005Z,28.70
2018-08-12T17:45:30.234Z,28.80
2018-08-12T17:48:33.437Z,29.00
2018-08-12T17:51:36.834Z,29.00
2018-08-12T17:54:40.141Z,29.20
2018-08-12T17:57:43.451Z,29.40
2018-08-12T18:00:46.709Z,29.80
2018-08-12T18:03:50.039Z,29.60
2018-08-12T18:06:53.226Z,30.00
2018-08-12T18:09:57.237Z,30.10
2018-08-12T18:13:00.581Z,30.40
2018-08-12T18:16:03.905Z,30.30
2018-08-12T18:19:07.119Z,30.20
2018-08-12T18:22:10.333Z,30.50
2018-08-12T18:25:13.506Z,30.60
2018-08-12T18:28:16.715Z,30.70
2018-08-12T18:31:20.050Z,31.60
2018-08-12T18:34:23.292Z,31.10
2018-08-12T18:37:26.518Z,31.20
2018-08-12T18:40:30.450Z,31.50
2018-08-12T18:43:33.642Z,31.40
2018-08-12T18:46:40.617Z,32.20
2018-08-12T18:49:44.006Z,32.00
2018-08-12T18:52:47.169Z,32.20
2018-08-12T18:55:50.244Z,32.10
2018-08-12T18:58:53.445Z,32.70
2018-08-12T19:01:56.603Z,33.30
2018-08-12T19:04:59.781Z,33.30
2018-08-12T19:08:09.004Z,33.90
2018-08-12T19:11:12.693Z,34.10
2018-08-12T19:14:15.737Z,34.70
2018-08-12T19:17:18.857Z,35.30
2018-08-12T19:20:21.936Z,34.30
2018-08-12T19:23:25.018Z,34.30
2018-08-12T19:26:28.090Z,34.50
2018-08-12T19:29:31.165Z,34.40
2018-08-12T19:32:34.247Z,34.80
2018-08-12T19:35:37.317Z,34.50
2018-08-12T19:38:40.399Z,34.70
2018-08-12T19:41:56.257Z,35.50
2018-08-12T19:44:59.438Z,35.30
2018-08-12T19:48:02.517Z,35.00
2018-08-12T19:51:05.740Z,35.10
2018-08-12T19:54:08.804Z,35.70
2018-08-12T19:57:12.038Z,35.40
2018-08-12T20:00:15.734Z,35.60
2018-08-12T20:03:18.765Z,35.80
2018-08-12T20:06:21.889Z,35.70
2018-08-12T20:09:24.953Z,35.70
2018-08-12T20:12:28.013Z,36.00
2018-08-12T20:15:31.091Z,35.80
2018-08-12T20:18:34.202Z,35.90
2018-08-12T20:21:37.273Z,36.90
2018-08-12T20:24:40.781Z,36.70
2018-08-12T20:27:43.994Z,36.80
2018-08-12T20:30:47.066Z,36.40
2018-08-12T20:33:50.150Z,36.50
2018-08-12T20:36:53.218Z,36.60
2018-08-12T20:39:56.297Z,36.80
2018-08-12T20:42:59.377Z,37.00
2018-08-12T20:46:02.449Z,37.20
2018-08-12T20:49:05.501Z,37.40
2018-08-12T20:52:08.627Z,37.60
2018-08-12T20:55:17.537Z,37.70
2018-08-12T20:58:20.735Z,37.70
2018-08-12T21:01:23.817Z,37.60
2018-08-12T21:04:26.898Z,37.50
2018-08-12T21:07:30.005Z,37.70
2018-08-12T21:10:33.065Z,38.10
2018-08-12T21:13:36.153Z,38.10
2018-08-12T21:16:39.220Z,38.20
2018-08-12T21:19:42.288Z,38.50
2018-08-12T21:22:45.358Z,39.00
2018-08-12T21:25:48.440Z,39.10
2018-08-12T21:28:51.515Z,39.20
2018-08-12T21:31:54.593Z,38.80
2018-08-12T21:34:57.673Z,39.30
2018-08-12T21:38:00.732Z,38.90
2018-08-12T21:41:03.802Z,39.10
2018-08-12T21:44:07.306Z,39.70
2018-08-12T21:47:10.364Z,39.20
2018-08-12T21:50:13.442Z,39.50
2018-08-12T21:53:16.555Z,39.50
2018-08-12T21:56:19.609Z,39.90
2018-08-12T21:59:22.698Z,39.70
2018-08-12T22:02:25.818Z,39.90
2018-08-12T22:05:28.892Z,40.20
2018-08-12T22:08:32.005Z,40.30
2018-08-12T22:11:35.093Z,40.30
2018-08-12T22:14:38.189Z,40.60
2018-08-12T22:17:41.274Z,40.50
2018-08-12T22:20:44.365Z,41.00
2018-08-12T22:23:47.456Z,40.90
2018-08-12T22:26:50.555Z,40.90
2018-08-12T22:29:53.638Z,41.00
2018-08-12T22:32:56.717Z,40.90
2018-08-12T22:35:59.811Z,40.80
2018-08-12T22:39:02.869Z,40.90
2018-08-12T22:42:05.934Z,40.90
2018-08-12T22:45:10.456Z,40.80
2018-08-12T22:48:13.529Z,41.50
2018-08-12T22:51:16.598Z,41.10
2018-08-12T22:54:19.689Z,41.50
2018-08-12T22:57:22.822Z,41.10
2018-08-12T23:00:25.900Z,41.30
2018-08-12T23:03:28.985Z,41.30
2018-08-12T23:06:32.043Z,41.20
2018-08-12T23:09:35.112Z,41.20
2018-08-12T23:12:38.495Z,41.40
2018-08-12T23:16:26.437Z,41.80
2018-08-12T23:19:29.957Z,41.80
2018-08-12T23:22:33.033Z,42.00
2018-08-12T23:25:36.085Z,42.20
2018-08-12T23:28:39.149Z,42.30
2018-08-12T23:31:42.212Z,42.30
2018-08-12T23:34:45.286Z,42.60
2018-08-12T23:37:48.343Z,42.80
2018-08-12T23:40:51.790Z,42.90
2018-08-12T23:43:54.874Z,42.90
2018-08-12T23:46:57.931Z,42.80
2018-08-12T23:50:00.997Z,42.80
2018-08-12T23:53:04.073Z,42.80
2018-08-12T23:56:07.146Z,42.70
2018-08-12T23:59:10.213Z,42.80
